createdAt,value
2023-05-16T00:01:05.386Z,98901.54
2023-05-16T00:06:07.987Z,98898.73
2023-05-16T00:11:10.541Z,98896.25
2023-05-16T00:16:14.599Z,98893.64
2023-05-16T00:21:17.285Z,98888.03
2023-05-16T00:26:20.294Z,98890.11
2023-05-16T00:31:23.241Z,98882.02
2023-05-16T00:36:25.965Z,98881.58
2023-05-16T00:41:28.604Z,98884.59
2023-05-16T00:46:31.159Z,98883.67
2023-05-16T00:51:34.093Z,98885.98
2023-05-16T00:56:36.934Z,98883.85
2023-05-16T01:01:41.435Z,98886.31
2023-05-16T01:06:44.739Z,98881.75
2023-05-16T01:11:55.925Z,98887.06
2023-05-16T01:17:12.632Z,98888.60
2023-05-16T01:22:37.418Z,98889.81
2023-05-16T01:27:40.869Z,98894.72
2023-05-16T01:32:43.776Z,98897.23
2023-05-16T01:38:00.887Z,98897.68
2023-05-16T01:43:08.619Z,98894.31
2023-05-16T01:48:17.974Z,98901.30
2023-05-16T01:53:29.590Z,98906.20
2023-05-16T01:58:33.898Z,98906.70
2023-05-16T02:03:36.448Z,98908.79
2023-05-16T02:08:39.070Z,98913.13
2023-05-16T02:13:42.603Z,98910.99
2023-05-16T02:18:45.837Z,98915.89
2023-05-16T02:23:48.464Z,98921.92
2023-05-16T02:28:51.203Z,98919.84
2023-05-16T02:33:53.752Z,98915.48
2023-05-16T02:38:56.297Z,98920.14
2023-05-16T02:43:58.798Z,98920.51
2023-05-16T02:49:01.884Z,98922.65
2023-05-16T02:54:04.687Z,98923.07
2023-05-16T02:59:07.565Z,98924.85
2023-05-16T03:04:10.191Z,98920.13
2023-05-16T03:09:12.752Z,98919.96
2023-05-16T03:14:15.263Z,98923.35
2023-05-16T03:19:17.860Z,98928.48
2023-05-16T03:24:22.882Z,98933.95
2023-05-16T03:29:27.104Z,98926.82
2023-05-16T03:34:29.647Z,98934.25
2023-05-16T03:39:32.148Z,98936.92
2023-05-16T03:44:34.646Z,98941.11
2023-05-16T03:49:37.422Z,98940.77
2023-05-16T03:54:40.021Z,98941.89
2023-05-16T03:59:42.838Z,98951.23
2023-05-16T04:04:45.832Z,98949.68
2023-05-16T04:09:48.440Z,98958.89
2023-05-16T04:14:50.978Z,98961.65
2023-05-16T04:19:53.517Z,98960.57
2023-05-16T04:24:57.053Z,98965.56
2023-05-16T04:29:59.861Z,98975.79
2023-05-16T04:35:02.851Z,98974.91
2023-05-16T04:40:07.697Z,98982.77
2023-05-16T04:45:14.597Z,98984.58
2023-05-16T04:50:18.131Z,98987.99
2023-05-16T04:55:20.844Z,98987.47
2023-05-16T05:00:23.593Z,98997.27
2023-05-16T05:05:26.364Z,99003.80
2023-05-16T05:10:31.088Z,99005.79
2023-05-16T05:15:33.710Z,99011.86
2023-05-16T05:20:36.272Z,99012.54
2023-05-16T05:25:39.415Z,99022.80
2023-05-16T05:30:43.184Z,99028.45
2023-05-16T05:35:46.000Z,99040.61
2023-05-16T05:40:49.617Z,99054.49
2023-05-16T05:45:52.368Z,99066.02
2023-05-16T05:50:54.954Z,99071.61
2023-05-16T05:55:57.451Z,99081.27
2023-05-16T06:01:00.042Z,99078.80
2023-05-16T06:06:03.947Z,99090.47
2023-05-16T06:11:07.399Z,99104.23
2023-05-16T06:16:09.986Z,99109.27
2023-05-16T06:21:12.624Z,99113.14
2023-05-16T06:26:15.767Z,99117.09
2023-05-16T06:31:18.339Z,99125.61
2023-05-16T06:36:21.098Z,99133.04
2023-05-16T06:41:23.718Z,99139.83
2023-05-16T06:46:26.346Z,99149.23
2023-05-16T06:51:29.063Z,99159.48
2023-05-16T06:56:32.809Z,99159.78
2023-05-16T07:01:35.450Z,99173.63
2023-05-16T07:06:38.355Z,99182.50
2023-05-16T07:11:41.060Z,99192.96
2023-05-16T07:16:44.141Z,99205.48
2023-05-16T07:21:46.884Z,99216.98
2023-05-16T07:26:50.202Z,99221.25
2023-05-16T07:31:52.945Z,99232.40
2023-05-16T07:36:55.716Z,99231.52
2023-05-16T07:41:58.478Z,99239.20
2023-05-16T07:47:01.104Z,99236.43
2023-05-16T07:52:04.065Z,99250.33
2023-05-16T07:57:07.409Z,99263.73
2023-05-16T08:02:11.245Z,99270.81
2023-05-16T08:07:13.924Z,99285.78
2023-05-16T08:12:16.551Z,99293.48
2023-05-16T08:17:19.145Z,99302.66
2023-05-16T08:22:21.747Z,99313.48
2023-05-16T08:27:24.679Z,99328.94
2023-05-16T08:32:27.451Z,99347.45
2023-05-16T08:37:30.112Z,99343.42
2023-05-16T08:42:34.040Z,99356.81
2023-05-16T08:47:41.601Z,99372.23
2023-05-16T08:52:47.247Z,99368.31
2023-05-16T08:57:53.483Z,99379.09
2023-05-16T09:02:56.593Z,99384.11
2023-05-16T09:08:00.657Z,99390.54
2023-05-16T09:13:05.515Z,99399.04
2023-05-16T09:18:16.603Z,99401.04
2023-05-16T09:23:25.700Z,99418.55
2023-05-16T09:28:28.817Z,99429.89
2023-05-16T09:33:31.688Z,99442.34
2023-05-16T09:38:34.298Z,99454.98
2023-05-16T09:43:41.802Z,99455.85
2023-05-16T09:48:46.686Z,99465.75
2023-05-16T09:53:49.621Z,99484.69
2023-05-16T09:58:52.611Z,99492.61
2023-05-16T10:03:55.831Z,99496.98
2023-05-16T10:09:00.548Z,99505.11
2023-05-16T10:14:07.953Z,99505.41
2023-05-16T10:19:11.656Z,99507.29
2023-05-16T10:24:22.400Z,99509.16
2023-05-16T10:29:26.112Z,99512.21
2023-05-16T10:34:29.390Z,99520.06
2023-05-16T10:39:32.358Z,99528.50
2023-05-16T10:44:38.661Z,99524.25
2023-05-16T10:49:41.876Z,99526.89
2023-05-16T10:54:54.041Z,99537.27
2023-05-16T11:00:01.666Z,99548.88
2023-05-16T11:05:06.784Z,99561.52
2023-05-16T11:10:14.673Z,99568.55
2023-05-16T11:15:28.903Z,99564.92
2023-05-16T11:20:34.391Z,99579.54
2023-05-16T11:25:41.129Z,99585.66
2023-05-16T11:30:46.261Z,99598.74
2023-05-16T11:41:16.875Z,99612.55
2023-05-16T11:46:21.554Z,99626.95
2023-05-16T11:51:24.462Z,99635.91
2023-05-16T11:56:27.648Z,99640.66
2023-05-16T12:01:35.475Z,99650.27
2023-05-16T12:06:38.679Z,99657.39
2023-05-16T12:11:43.504Z,99665.08
2023-05-16T12:16:46.679Z,99681.70
2023-05-16T12:21:53.370Z,99686.84
2023-05-16T12:26:57.516Z,99685.54
2023-05-16T12:32:00.239Z,99683.37
2023-05-16T12:37:03.101Z,99693.42
2023-05-16T12:42:07.346Z,99693.57
2023-05-16T12:47:14.402Z,99695.81
2023-05-16T12:52:21.500Z,99697.47
2023-05-16T12:57:24.143Z,99694.28
2023-05-16T13:02:26.863Z,99701.75
2023-05-16T13:07:30.698Z,99706.73
2023-05-16T13:12:33.622Z,99720.59
2023-05-16T13:17:37.486Z,99728.49
2023-05-16T13:22:44.832Z,99730.51
2023-05-16T13:27:49.489Z,99743.52
2023-05-16T13:32:52.780Z,99747.67
2023-05-16T13:37:56.029Z,99758.23
2023-05-16T13:42:58.809Z,99766.45
2023-05-16T13:48:01.806Z,99761.72
2023-05-16T13:53:04.498Z,99751.77
2023-05-16T13:58:07.137Z,99759.81
2023-05-16T14:03:09.910Z,99755.87
2023-05-16T14:08:14.375Z,99750.79
2023-05-16T14:13:17.045Z,99745.71
2023-05-16T14:18:20.012Z,99748.20
2023-05-16T14:23:25.909Z,99746.18
2023-05-16T14:28:28.726Z,99746.77
2023-05-16T14:33:32.940Z,99755.19
2023-05-16T14:38:36.055Z,99764.11
2023-05-16T14:43:38.965Z,99761.67
2023-05-16T14:48:41.645Z,99762.69
2023-05-16T14:53:46.617Z,99767.82
2023-05-16T14:58:49.805Z,99764.23
2023-05-16T15:03:55.974Z,99773.20
2023-05-16T15:08:59.110Z,99776.45
2023-05-16T15:14:02.017Z,99768.83
2023-05-16T15:19:04.851Z,99770.52
2023-05-16T15:24:08.296Z,99779.88
2023-05-16T15:29:11.443Z,99782.91
2023-05-16T15:34:14.157Z,99784.04
2023-05-16T15:39:16.795Z,99779.98
2023-05-16T15:44:19.374Z,99779.13
2023-05-16T15:49:22.160Z,99775.77
2023-05-16T15:54:24.781Z,99771.44
2023-05-16T15:59:27.440Z,99771.25
2023-05-16T16:04:30.059Z,99776.46
2023-05-16T16:09:32.690Z,99777.91
2023-05-16T16:14:35.301Z,99777.32
2023-05-16T16:19:37.935Z,99781.86
2023-05-16T16:24:40.923Z,99783.25
2023-05-16T16:29:43.553Z,99788.30
2023-05-16T16:34:46.128Z,99783.22
2023-05-16T16:39:48.749Z,99778.66
2023-05-16T16:44:55.327Z,99778.02
2023-05-16T16:49:58.651Z,99779.52
2023-05-16T16:55:01.391Z,99790.23
2023-05-16T17:00:07.306Z,99795.05
2023-05-16T17:05:10.533Z,99798.75
2023-05-16T17:10:13.205Z,99799.44
2023-05-16T17:15:17.495Z,99797.52
2023-05-16T17:20:20.264Z,99802.63
2023-05-16T17:25:23.096Z,99807.24
2023-05-16T17:30:26.278Z,99810.42
2023-05-16T17:35:29.358Z,99818.09
2023-05-16T17:40:32.661Z,99828.81
2023-05-16T17:45:35.390Z,99835.26
2023-05-16T17:50:38.040Z,99842.06
2023-05-16T17:55:40.728Z,99849.21
2023-05-16T18:00:48.488Z,99858.19
2023-05-16T18:05:51.802Z,99867.43
2023-05-16T18:10:55.685Z,99873.21
2023-05-16T18:15:58.376Z,99872.77
2023-05-16T18:21:01.115Z,99879.79
2023-05-16T18:26:03.840Z,99878.81
2023-05-16T18:31:06.933Z,99880.00
2023-05-16T18:36:10.408Z,99893.05
2023-05-16T18:41:13.079Z,99895.29
2023-05-16T18:46:15.672Z,99897.77
2023-05-16T18:51:18.618Z,99906.75
2023-05-16T18:56:22.438Z,99916.77
2023-05-16T19:01:25.574Z,99919.55
2023-05-16T19:06:28.340Z,99926.73
2023-05-16T19:11:30.991Z,99937.59
2023-05-16T19:16:34.243Z,99943.49
2023-05-16T19:21:38.022Z,99949.14
2023-05-16T19:26:40.773Z,99952.80
2023-05-16T19:31:43.420Z,99959.20
2023-05-16T19:36:46.858Z,99957.11
2023-05-16T19:41:52.296Z,99960.95
2023-05-16T19:46:55.073Z,99965.23
2023-05-16T19:51:57.854Z,99968.31
2023-05-16T19:57:00.541Z,99973.45
2023-05-16T20:02:04.325Z,99971.98
2023-05-16T20:07:07.512Z,99976.13
2023-05-16T20:12:10.237Z,99978.02
2023-05-16T20:17:12.939Z,99981.77
2023-05-16T20:22:15.745Z,99982.49
2023-05-16T20:27:18.380Z,99970.73
2023-05-16T20:32:21.318Z,99970.71
2023-05-16T20:37:26.839Z,99975.60
2023-05-16T20:42:29.671Z,99975.80
2023-05-16T20:47:32.338Z,99976.80
2023-05-16T20:52:34.980Z,99977.31
2023-05-16T20:57:37.623Z,99983.37
2023-05-16T21:02:42.892Z,99989.87
2023-05-16T21:07:46.729Z,99992.20
2023-05-16T21:12:51.262Z,100000.67
2023-05-16T21:17:53.916Z,100008.36
2023-05-16T21:22:57.274Z,100013.20
2023-05-16T21:28:00.540Z,100016.19
2023-05-16T21:33:03.286Z,100019.88
2023-05-16T21:38:06.349Z,100025.91
2023-05-16T21:43:08.983Z,100027.95
2023-05-16T21:48:12.042Z,100030.64
2023-05-16T21:53:14.803Z,100022.83
2023-05-16T21:58:19.159Z,100028.38
2023-05-16T22:03:24.486Z,100029.10
2023-05-16T22:08:27.142Z,100034.14
2023-05-16T22:13:29.753Z,100032.33
2023-05-16T22:18:33.368Z,100033.66
2023-05-16T22:23:36.402Z,100031.20
2023-05-16T22:28:39.018Z,100037.44
2023-05-16T22:33:41.753Z,100038.65
2023-05-16T22:38:44.471Z,100036.48
2023-05-16T22:43:47.141Z,100040.11
2023-05-16T22:48:49.849Z,100040.44
2023-05-16T22:53:52.467Z,100041.27
2023-05-16T22:58:55.173Z,100047.47
2023-05-16T23:03:57.862Z,100058.08
2023-05-16T23:09:00.781Z,100062.48
2023-05-16T23:14:03.378Z,100067.63
2023-05-16T23:19:09.124Z,100070.82
2023-05-16T23:24:12.174Z,100072.41
2023-05-16T23:29:14.768Z,100073.23
2023-05-16T23:34:17.358Z,100072.70
2023-05-16T23:39:21.373Z,100078.36
2023-05-16T23:44:23.952Z,100081.99
2023-05-16T23:49:26.724Z,100079.41
2023-05-16T23:54:29.531Z,100086.46
2023-05-16T23:59:32.125Z,100089.03
